SEASEATTLE-TACOMA INTL
METARs for airports near SEA, sorted by distance:
N 0 nm 432' KSEA 161053Z 15005KT 10SM FEW042 FEW060 OVC100 12/09 A3007
NE 4 nm 32' KRNT 161053Z 00000KT 10SM BKN050 OVC110 13/09 A3006
N 4 nm 21' KBFI 161053Z 14006KT 10SM BKN070 OVC110 13/09 A3007
SW 15 nm 294' KTIW 161053Z 00000KT 10SM FEW050 OVC060 12/10 A3007
W 18 nm 444' KPWT 161056Z 22003KT 10SM OVC033 11/11 A3007
S 19 nm 322' KTCM 161058Z 19004KT 10SM FEW044 BKN060 OVC080 13/08 A3007
S 20 nm 537' KPLU 161055Z 00000KT 10SM FEW042 OVC055 15/07 A3007
SW 24 nm 301' KGRF 160958Z 00000KT 10SM OVC048 13/09 A3008
N 27 nm 606' KPAE 161053Z 15010KT 10SM -RA SCT038 BKN065 OVC085 12/09 A3006
W 36 nm 272' KSHN 161053Z 00000KT 10SM OVC035 12/11 A3004
SW 37 nm 207' KOLM 161054Z 20007KT 10SM BKN045 OVC060 13/08 A3007
N 43 nm 141' KAWO 161056Z 12010G19KT 10SM -RA FEW055 OVC090 12/09 A3005
SW 53 nm 177' KCLS 161055Z 18007KT 10SM OVC045 12/10 A3010
N 55 nm 47' KNUW 161056Z 13023G32KT 10SM FEW035 FEW075 BKN100 14/09 A3000
NW 60 nm 13' KNOW 161055Z 00000KT 7SM -RA SCT006 OVC100 10/10 A2993
N 61 nm 145' KBVS 161055Z 11007G15KT 8SM BKN038 BKN065 OVC090 13/09 A3001
NW 62 nm 291' KCLM 161053Z 00000KT 4SM -RA BR FEW029 BKN095 BKN110 10/09 A2994
NW 70 nm 112' KFHR 161053Z 13016G27KT 10SM FEW020 OVC080 13/09 A2997
SW 72 nm 17' KHQM 161053Z 17013KT 8SM OVC021 15/11 A3005
E 76 nm 1763' KELN 161053Z 06003KT 10SM CLR 02/M01 A3011
N 79 nm 34' KORS 161055Z 17017G24KT 10SM FEW055 OVC070 14/10 A2994
N 81 nm 171' KBLI 161053Z 10SM OVC070 14/09 A2997
S 83 nm 20' KKLS 161056Z 14009KT 10SM OVC050 10/09 A3013
NW 84 nm 64' CYYJ 161105Z 15011G18KT 15SM -RA FEW015 SCT045 OVC059 12/12 A2994
E 85 nm 1248' KEAT 161055Z 29006KT 10SM CLR 08/03 A3010
SE 89 nm 1098' KYKM 161053Z 27006KT 10SM CLR 01/01 A3011
W 95 nm 193' KUIL 161053Z 16009G20KT 120V200 2SM -RA BR BKN007 OVC012 12/12 A2993
TAFs for airports near SEA, sorted by distance:
N 0 nm 432' KSEA TAF
  AMD KSEA 160857Z 1609/1712 17006KT P6SM VCSH FEW070 BKN090 OVC110
  FM161600 19008KT P6SM SCT020 BKN050 OVC100
  FM162300 19007KT P6SM BKN070 OVC120
  FM170500 20006KT P6SM VCSH BKN050 OVC070
  FM171000 21003KT P6SM BKN025 OVC050
N 4 nm 21' KBFI KBFI 160522Z 1606/1706 14007KT P6SM VCSH BKN060 OVC090
  FM160900 18008KT P6SM -RA SCT027 OVC040
  FM161600 18008KT P6SM SCT025 BKN050 OVC100
  FM162300 17008KT P6SM BKN070 OVC120
  FM170300 16005KT P6SM VCSH BKN070 OVC080
W 18 nm 444' KPWT TAF KPWT 160522Z 1606/1706 19009KT P6SM FEW040 SCT080 SCT120
  TEMPO 1606/1610 -RA SCT025 OVC040
  FM161000 19012KT P6SM -RA BKN015 OVC030
  FM161600 19018KT P6SM SCT015 BKN040 OVC080
  FM162300 19012KT P6SM -RA BKN015 OVC030
  FM170300 20004KT P6SM OVC050
S 19 nm 322' KTCM TAF KTCM 160500Z 1605/1711 20006KT 9999 OVC045 QNH3012INS
  BECMG 1611/1612 17005KT 9999 FEW060 BKN180 QNH3005INS
  BECMG 1617/1618 19010G15KT 9999 BKN100 OVC200 QNH3000INS
  BECMG 1710/1711 19006KT 9999 VCSH SCT015 OVC035 QNH2979INS TX18/1623Z TN08/1613Z
SW 24 nm 301' KGRF TAF KGRF 160500Z 1605/1711 14004KT 9999 BKN050 QNH3011INS
  BECMG 1609/1610 20005KT 9999 SCT040 BKN080 QNH3009INS
  BECMG 1617/1618 20010G18KT 9999 SCT030 QNH3001INS
  BECMG 1708/1709 20005KT 9999 BKN030 QNH2977INS TX17/1622Z TN10/1615Z
N 27 nm 606' KPAE KPAE 160858Z 1609/1706 14010KT P6SM -RA SCT060 SCT080 OVC100
  FM161600 19012KT P6SM SCT020 BKN050 OVC100
  FM162300 19012KT P6SM -RA BKN022 OVC040
  FM170300 16008KT P6SM OVC050
SW 37 nm 207' KOLM KOLM 160522Z 1606/1706 15003KT P6SM OVC050
  FM161500 18007KT P6SM OVC050
  FM170000 21005KT P6SM OVC100
N 55 nm 47' KNUW TAF KNUW 1607/1707 15020G30KT 8000 -RA SCT014 BKN030 OVC090 640809 540209 541103 QNH2999INS
  TEMPO 1608/1612 15025G46KT 3200 -RA BR BKN008 OVC015
  FM161400 18020G35KT 9999 VCSH SCT025 OVC060 640708 540109 540903 QNH2995INS
  TEMPO 1616/1622 16015G22KT 3200 -RA BKN015 OVC030
  FM170600 20015G28KT 6000 RA BKN010 OVC035 640609 540109 QNH2993INS T08/1612Z T16/1622Z FS30014
NW 62 nm 291' KCLM KCLM 160522Z 1606/1706 00000KT 6SM -RA BR OVC090
  FM161000 VRB04KT 3SM -RA BR BKN005 OVC015
  FM161500 25003KT 3SM -RA BR OVC025
  FM170300 28004KT P6SM OVC030
SW 72 nm 17' KHQM KHQM 160522Z 1606/1706 12006KT P6SM OVC060
  FM161800 18015G25KT P6SM -RA BKN020 OVC040
  FM170200 18010KT P6SM OVC030
N 81 nm 171' KBLI KBLI 160858Z 1609/1706 15010G15KT P6SM -RA SCT045 OVC070
  FM161000 15015G20KT 4SM -RA BR OVC030
  FM170300 16010KT P6SM OVC040
E 85 nm 1248' KEAT TAF KEAT 160520Z 1606/1706 30004KT P6SM SCT100 BKN200
  FM160800 31004KT P6SM SCT100 SCT250
  FM161800 VRB04KT P6SM SCT250
  FM170300 VRB02KT P6SM SCT120 BKN250
SE 89 nm 1098' KYKM KYKM 160525Z 1606/1706 29006KT P6SM FEW150 BKN200
  FM160900 VRB03KT P6SM FEW250

Shortcut to this page: http://wxbay.com.

Data may contain errors.